createdAt,value
2019-06-07T00:01:46.527Z,65.41
2019-06-07T00:04:16.269Z,65.81
2019-06-07T00:06:45.662Z,65.40
2019-06-07T00:09:17.730Z,65.52
2019-06-07T00:11:45.873Z,65.52
2019-06-07T00:14:16.611Z,64.93
2019-06-07T00:16:46.099Z,63.07
2019-06-07T00:19:16.222Z,64.85
2019-06-07T00:22:15.456Z,63.94
2019-06-07T00:24:19.398Z,64.88
2019-06-07T00:26:58.329Z,65.23
2019-06-07T00:29:21.750Z,65.25
2019-06-07T00:31:50.149Z,65.10
2019-06-07T00:34:22.119Z,66.42
2019-06-07T00:36:50.274Z,65.73
2019-06-07T00:39:24.687Z,63.02
2019-06-07T00:41:50.450Z,62.08
2019-06-07T00:44:23.098Z,63.41
2019-06-07T00:46:50.992Z,62.17
2019-06-07T00:49:36.094Z,62.10
2019-06-07T00:51:51.986Z,59.72
2019-06-07T00:54:24.663Z,57.91
2019-06-07T00:56:54.972Z,57.21
2019-06-07T00:59:29.178Z,57.30
2019-06-07T01:01:55.267Z,57.99
2019-06-07T01:04:26.631Z,59.96
2019-06-07T01:06:55.506Z,61.59
2019-06-07T01:09:25.534Z,61.99
2019-06-07T01:11:55.190Z,62.39
2019-06-07T01:14:27.760Z,62.30
2019-06-07T01:17:01.403Z,59.11
2019-06-07T01:19:27.772Z,60.27
2019-06-07T01:21:57.481Z,58.92
2019-06-07T01:24:28.053Z,59.17
2019-06-07T01:26:57.541Z,56.07
2019-06-07T01:29:30.393Z,56.80
2019-06-07T01:31:57.803Z,58.58
2019-06-07T01:34:27.039Z,60.04
2019-06-07T01:36:56.278Z,61.31
2019-06-07T01:39:29.730Z,57.51
2019-06-07T01:41:56.582Z,54.33
2019-06-07T01:44:28.103Z,53.36
2019-06-07T01:46:56.725Z,58.19
2019-06-07T01:49:28.112Z,57.77
2019-06-07T01:51:58.872Z,56.83
2019-06-07T01:54:53.158Z,55.52
2019-06-07T01:56:59.092Z,57.47
2019-06-07T01:59:31.008Z,59.72
2019-06-07T02:01:59.373Z,60.70
2019-06-07T02:04:32.406Z,62.44
2019-06-07T02:06:59.669Z,63.23
2019-06-07T02:09:31.757Z,63.11
2019-06-07T02:11:59.850Z,63.30
2019-06-07T02:14:32.467Z,63.54
2019-06-07T02:16:59.981Z,63.79
2019-06-07T02:19:32.735Z,65.53
2019-06-07T02:22:00.281Z,65.58
2019-06-07T02:24:35.135Z,65.36
2019-06-07T02:27:00.510Z,66.18
2019-06-07T02:29:33.334Z,67.21
2019-06-07T02:32:00.969Z,66.42
2019-06-07T02:34:36.016Z,66.38
2019-06-07T02:37:01.072Z,65.29
2019-06-07T02:39:37.594Z,65.91
2019-06-07T02:42:03.244Z,66.84
2019-06-07T02:44:38.575Z,66.52
2019-06-07T02:47:04.841Z,66.41
2019-06-07T02:49:40.487Z,67.07
2019-06-07T02:52:05.048Z,66.79
2019-06-07T02:54:39.540Z,68.20
2019-06-07T02:57:05.651Z,67.98
2019-06-07T03:00:02.933Z,68.56
2019-06-07T03:02:05.865Z,69.51
2019-06-07T03:04:41.566Z,69.81
2019-06-07T03:07:06.374Z,70.44
2019-06-07T03:09:37.207Z,69.98
2019-06-07T03:12:09.594Z,69.83
2019-06-07T03:14:39.408Z,68.78
2019-06-07T03:17:11.903Z,69.24
2019-06-07T03:19:42.169Z,68.54
2019-06-07T03:22:11.553Z,67.33
2019-06-07T03:24:42.292Z,65.50
2019-06-07T03:29:42.781Z,66.28
2019-06-07T03:32:12.307Z,65.13
2019-06-07T03:34:43.665Z,65.59
2019-06-07T03:37:12.468Z,65.12
2019-06-07T03:39:41.719Z,64.92
2019-06-07T03:42:10.909Z,62.96
2019-06-07T03:44:41.578Z,63.33
2019-06-07T03:47:11.170Z,63.80
2019-06-07T03:49:42.677Z,65.03
2019-06-07T03:52:11.612Z,65.37
2019-06-07T03:54:41.141Z,67.16
2019-06-07T03:57:10.317Z,68.16
2019-06-07T03:59:41.561Z,69.10
2019-06-07T04:02:10.594Z,68.74
2019-06-07T04:04:39.973Z,69.55
2019-06-07T04:07:09.227Z,69.85
2019-06-07T04:09:42.029Z,69.48
2019-06-07T04:12:09.597Z,68.82
2019-06-07T04:14:42.501Z,68.92
2019-06-07T04:17:10.312Z,67.77
2019-06-07T04:19:43.330Z,68.08
2019-06-07T04:22:10.461Z,67.55
2019-06-07T04:24:41.958Z,65.55
2019-06-07T04:27:10.650Z,65.17
2019-06-07T04:30:04.834Z,64.61
2019-06-07T04:32:11.051Z,64.14
2019-06-07T04:34:43.241Z,63.49
2019-06-07T04:37:11.215Z,62.53
2019-06-07T04:39:44.684Z,62.76
2019-06-07T04:42:11.989Z,62.91
2019-06-07T04:44:43.138Z,60.78
2019-06-07T04:47:12.345Z,60.28
2019-06-07T04:49:44.092Z,59.13
2019-06-07T04:52:14.470Z,57.84
2019-06-07T04:54:45.970Z,55.65
2019-06-07T04:57:15.432Z,53.62
2019-06-07T05:00:12.109Z,51.79
2019-06-07T05:02:18.504Z,49.80
2019-06-07T05:04:47.681Z,50.34
2019-06-07T05:07:17.091Z,49.68
2019-06-07T05:09:46.572Z,50.38
2019-06-07T05:12:15.972Z,49.92
2019-06-07T05:14:45.241Z,49.00
2019-06-07T05:17:14.781Z,48.05
2019-06-07T05:19:44.829Z,47.09
2019-06-07T05:22:14.146Z,44.70
2019-06-07T05:24:43.929Z,44.03
2019-06-07T05:27:13.517Z,43.46
2019-06-07T05:29:44.372Z,41.56
2019-06-07T05:32:14.339Z,40.46
2019-06-07T05:34:47.239Z,40.16
2019-06-07T05:37:14.948Z,39.06
2019-06-07T05:39:46.379Z,36.58
2019-06-07T05:42:15.125Z,35.80
2019-06-07T05:44:45.850Z,35.20
2019-06-07T05:47:15.335Z,34.76
2019-06-07T05:49:46.961Z,33.70
2019-06-07T05:52:15.634Z,33.27
2019-06-07T05:54:46.824Z,33.65
2019-06-07T05:57:15.709Z,33.59
2019-06-07T05:59:47.550Z,33.07
2019-06-07T06:02:22.684Z,32.73
2019-06-07T06:04:49.217Z,32.79
2019-06-07T06:07:17.878Z,32.30
2019-06-07T06:09:47.650Z,31.06
2019-06-07T06:12:33.950Z,30.23
2019-06-07T06:14:48.045Z,29.68
2019-06-07T06:17:17.237Z,30.23
2019-06-07T06:19:50.425Z,31.25
2019-06-07T06:22:17.437Z,31.34
2019-06-07T06:25:17.827Z,31.61
2019-06-07T06:28:01.808Z,32.44
2019-06-07T06:29:50.305Z,32.23
2019-06-07T06:34:53.642Z,33.51
2019-06-07T06:37:20.955Z,32.59
2019-06-07T06:39:50.365Z,31.65
2019-06-07T06:42:19.484Z,31.58
2019-06-07T06:44:53.572Z,31.19
2019-06-07T06:47:19.715Z,29.83
2019-06-07T06:49:50.141Z,28.94
2019-06-07T06:52:19.916Z,29.71
2019-06-07T06:54:59.420Z,30.64
2019-06-07T06:57:20.529Z,29.55
2019-06-07T06:59:52.545Z,27.58
2019-06-07T07:02:20.794Z,27.24
2019-06-07T07:04:53.506Z,27.28
2019-06-07T07:07:20.924Z,27.01
2019-06-07T07:09:54.754Z,26.79
2019-06-07T07:12:21.073Z,26.76
2019-06-07T07:14:52.956Z,27.48
2019-06-07T07:17:46.290Z,27.95
2019-06-07T07:19:54.933Z,27.93
2019-06-07T07:22:23.084Z,28.32
2019-06-07T07:24:54.794Z,27.33
2019-06-07T07:27:23.222Z,27.86
2019-06-07T07:30:10.239Z,28.22
2019-06-07T07:32:23.508Z,29.04
2019-06-07T07:35:00.004Z,29.83
2019-06-07T07:37:23.888Z,30.11
2019-06-07T07:40:01.147Z,29.08
2019-06-07T07:42:24.095Z,28.94
2019-06-07T07:44:55.131Z,28.66
2019-06-07T07:47:24.318Z,27.10
2019-06-07T07:49:58.508Z,27.20
2019-06-07T07:52:24.442Z,25.54
2019-06-07T07:54:56.617Z,24.99
2019-06-07T07:57:24.714Z,24.94
2019-06-07T08:00:12.088Z,27.11
2019-06-07T08:02:25.124Z,27.99
2019-06-07T08:05:20.550Z,28.39
2019-06-07T08:07:25.618Z,29.84
2019-06-07T08:09:57.738Z,30.74
2019-06-07T08:12:26.109Z,28.58
2019-06-07T08:14:58.488Z,27.47
2019-06-07T08:17:26.566Z,27.07
2019-06-07T08:19:57.519Z,26.83
2019-06-07T08:22:26.862Z,26.27
2019-06-07T08:24:59.833Z,26.78
2019-06-07T08:27:27.309Z,28.67
2019-06-07T08:30:16.067Z,30.68
2019-06-07T08:32:27.731Z,29.97
2019-06-07T08:35:05.620Z,28.38
2019-06-07T08:38:13.291Z,26.83
2019-06-07T08:40:01.458Z,27.00
2019-06-07T08:42:36.877Z,27.47
2019-06-07T08:45:03.611Z,26.46
2019-06-07T08:47:32.068Z,23.92
2019-06-07T08:50:07.236Z,24.34
2019-06-07T08:52:32.541Z,24.66
2019-06-07T08:55:04.983Z,24.51
2019-06-07T08:57:32.866Z,25.50
2019-06-07T09:00:15.733Z,25.33
2019-06-07T09:02:32.708Z,24.08
2019-06-07T09:05:06.962Z,25.08
2019-06-07T09:07:33.373Z,24.26
2019-06-07T09:10:09.508Z,23.73
2019-06-07T09:12:33.218Z,24.00
2019-06-07T09:15:14.829Z,25.48
2019-06-07T09:17:34.243Z,25.92
2019-06-07T09:20:21.546Z,25.36
2019-06-07T09:22:37.021Z,24.30
2019-06-07T09:25:19.616Z,24.05
2019-06-07T09:27:38.394Z,23.73
2019-06-07T09:30:16.308Z,24.50
2019-06-07T09:32:40.613Z,23.38
2019-06-07T09:35:16.871Z,24.40
2019-06-07T09:38:07.294Z,24.33
2019-06-07T09:40:24.137Z,24.15
2019-06-07T09:42:42.999Z,23.93
2019-06-07T09:45:14.120Z,23.55
2019-06-07T09:47:43.150Z,24.06
2019-06-07T09:50:12.730Z,25.17
2019-06-07T09:52:58.049Z,24.78
2019-06-07T09:55:23.747Z,25.88
2019-06-07T09:57:44.065Z,26.87
2019-06-07T10:00:39.980Z,27.21
2019-06-07T10:02:47.247Z,26.44
2019-06-07T10:05:16.522Z,27.04
2019-06-07T10:08:00.008Z,26.89
2019-06-07T10:12:47.868Z,28.47
2019-06-07T10:15:17.243Z,27.37
2019-06-07T10:17:46.614Z,28.57
2019-06-07T10:20:15.845Z,29.97
2019-06-07T10:22:45.138Z,30.24
2019-06-07T10:25:14.572Z,29.94
2019-06-07T10:27:44.051Z,29.58
2019-06-07T10:30:13.340Z,29.88
2019-06-07T10:32:42.778Z,30.16
2019-06-07T10:35:15.446Z,29.82
2019-06-07T10:37:42.958Z,31.59
2019-06-07T10:40:12.231Z,29.72
2019-06-07T10:42:41.549Z,29.92
2019-06-07T10:45:12.318Z,27.64
2019-06-07T10:47:41.768Z,27.85
2019-06-07T10:50:30.507Z,27.36
2019-06-07T10:52:59.784Z,27.85
2019-06-07T10:55:28.988Z,29.67
2019-06-07T10:57:58.372Z,27.79
2019-06-07T11:00:27.850Z,29.00
2019-06-07T11:02:57.176Z,30.37
2019-06-07T11:05:26.564Z,30.50
2019-06-07T11:07:55.837Z,30.43
2019-06-07T11:10:25.230Z,31.66
2019-06-07T11:12:54.565Z,33.17
2019-06-07T11:15:23.804Z,34.75
2019-06-07T11:17:53.207Z,32.64
2019-06-07T11:20:22.488Z,33.06
2019-06-07T11:22:51.892Z,31.73
2019-06-07T11:25:21.233Z,30.54
2019-06-07T11:27:50.506Z,31.71
2019-06-07T11:30:19.964Z,31.22
2019-06-07T11:32:49.195Z,31.34
2019-06-07T11:35:19.148Z,29.45
2019-06-07T11:37:48.656Z,28.62
2019-06-07T11:40:34.006Z,28.81
2019-06-07T11:42:52.779Z,29.62
2019-06-07T11:45:21.174Z,30.74
2019-06-07T11:47:50.674Z,30.41
2019-06-07T11:50:19.926Z,31.37
2019-06-07T11:52:49.180Z,29.88
2019-06-07T11:55:19.103Z,29.98
2019-06-07T11:57:50.222Z,31.61
2019-06-07T12:00:20.745Z,31.56
2019-06-07T12:02:50.019Z,31.08
2019-06-07T12:05:20.382Z,30.20
2019-06-07T12:07:49.761Z,28.25
2019-06-07T12:10:22.864Z,28.18
2019-06-07T12:12:50.582Z,27.63
2019-06-07T12:15:19.829Z,26.80
2019-06-07T12:17:49.130Z,27.23
2019-06-07T12:20:20.798Z,28.24
2019-06-07T12:22:49.438Z,27.69
2019-06-07T12:25:24.293Z,26.66
2019-06-07T12:27:49.857Z,28.97
2019-06-07T12:30:26.014Z,29.19
2019-06-07T12:32:50.431Z,29.58
2019-06-07T12:35:20.011Z,30.04
2019-06-07T12:37:49.316Z,29.79
2019-06-07T12:40:27.766Z,29.10
2019-06-07T12:42:49.540Z,30.49
2019-06-07T12:45:40.179Z,29.22
2019-06-07T12:47:49.907Z,28.57
2019-06-07T12:50:19.727Z,30.43
2019-06-07T12:52:48.923Z,30.65
2019-06-07T12:55:20.289Z,31.25
2019-06-07T12:57:49.405Z,31.10
2019-06-07T13:00:20.135Z,31.27
2019-06-07T13:02:49.817Z,32.46
2019-06-07T13:05:19.954Z,30.74
2019-06-07T13:07:49.466Z,31.60
2019-06-07T13:10:20.037Z,32.04
2019-06-07T13:12:49.523Z,32.85
2019-06-07T13:15:21.856Z,32.21
2019-06-07T13:17:50.012Z,31.31
2019-06-07T13:20:20.405Z,30.82
2019-06-07T13:22:49.989Z,28.52
2019-06-07T13:25:21.242Z,28.22
2019-06-07T13:27:50.321Z,29.00
2019-06-07T13:30:21.037Z,27.67
2019-06-07T13:32:50.401Z,27.69
2019-06-07T13:35:21.926Z,29.08
2019-06-07T13:37:50.831Z,29.17
2019-06-07T13:40:21.255Z,29.39
2019-06-07T13:42:51.137Z,31.07
2019-06-07T13:45:22.153Z,30.98
2019-06-07T13:47:51.885Z,30.00
2019-06-07T13:50:21.716Z,31.00
2019-06-07T13:52:51.154Z,29.98
2019-06-07T13:55:21.846Z,32.63
2019-06-07T13:57:51.120Z,31.70
2019-06-07T14:00:22.707Z,32.79
2019-06-07T14:02:51.597Z,34.25
2019-06-07T14:05:23.041Z,34.01
2019-06-07T14:07:52.392Z,33.39
2019-06-07T14:10:21.776Z,31.78
2019-06-07T14:12:51.089Z,31.58
2019-06-07T14:15:20.952Z,30.19
2019-06-07T14:17:51.994Z,30.51
2019-06-07T14:23:14.673Z,29.10
2019-06-07T14:25:43.915Z,29.10
2019-06-07T14:28:13.089Z,28.79
2019-06-07T14:30:42.537Z,28.76
2019-06-07T14:33:11.709Z,26.86
2019-06-07T14:35:41.016Z,27.42
2019-06-07T14:38:10.193Z,28.21
2019-06-07T14:40:39.388Z,27.29
2019-06-07T14:43:08.690Z,28.80
2019-06-07T14:45:37.874Z,28.36
2019-06-07T14:48:08.718Z,28.28
2019-06-07T14:50:37.929Z,27.50
2019-06-07T14:53:07.175Z,27.36
2019-06-07T14:55:36.414Z,27.12
2019-06-07T14:58:05.636Z,28.20
2019-06-07T15:00:40.125Z,27.27
2019-06-07T15:03:09.411Z,26.90
2019-06-07T15:05:40.477Z,26.41
2019-06-07T15:08:09.613Z,27.32
2019-06-07T15:10:39.463Z,28.54
2019-06-07T15:13:08.798Z,30.19
2019-06-07T15:15:39.755Z,29.99
2019-06-07T15:18:10.581Z,31.51
2019-06-07T15:20:39.866Z,30.98
2019-06-07T15:23:10.798Z,31.61
2019-06-07T15:25:40.252Z,32.00
2019-06-07T15:28:10.066Z,32.23
2019-06-07T15:30:40.106Z,32.42
2019-06-07T15:33:09.583Z,33.77
2019-06-07T15:35:39.206Z,33.33
2019-06-07T15:38:08.582Z,33.45
2019-06-07T15:40:39.465Z,33.35
2019-06-07T15:43:10.623Z,32.42
2019-06-07T15:45:40.002Z,33.82
2019-06-07T15:48:11.003Z,33.48
2019-06-07T15:50:40.585Z,34.52
2019-06-07T15:53:09.935Z,34.72
2019-06-07T15:55:45.085Z,33.79
2019-06-07T15:58:12.375Z,34.81
2019-06-07T16:00:42.604Z,34.91
2019-06-07T16:03:12.118Z,34.37
2019-06-07T16:05:41.568Z,34.03
2019-06-07T16:08:10.921Z,34.83
2019-06-07T16:10:40.962Z,34.61
2019-06-07T16:13:10.434Z,33.92
2019-06-07T16:15:41.370Z,34.15
2019-06-07T16:18:11.166Z,34.69
2019-06-07T16:20:41.509Z,33.79
2019-06-07T16:23:10.773Z,33.64
2019-06-07T16:25:40.213Z,33.57
2019-06-07T16:28:09.414Z,32.43
2019-06-07T16:30:38.662Z,33.47
2019-06-07T16:33:07.942Z,32.64
2019-06-07T16:35:37.119Z,32.96
2019-06-07T16:38:06.342Z,32.33
2019-06-07T16:40:36.399Z,33.04
2019-06-07T16:43:16.893Z,32.66
2019-06-07T16:45:36.613Z,32.39
2019-06-07T16:48:05.863Z,31.72
2019-06-07T16:50:36.684Z,31.74
2019-06-07T16:53:06.087Z,33.04
2019-06-07T16:55:36.489Z,34.19
2019-06-07T16:58:05.695Z,34.20
2019-06-07T17:00:35.376Z,35.13
2019-06-07T17:03:05.285Z,35.86
2019-06-07T17:05:34.512Z,35.24
2019-06-07T17:08:03.758Z,35.09
2019-06-07T17:10:32.931Z,34.98
2019-06-07T17:13:02.499Z,35.51
2019-06-07T17:15:32.068Z,35.27
2019-06-07T17:18:02.182Z,35.32
2019-06-07T17:20:31.521Z,35.24
2019-06-07T17:23:01.201Z,34.36
2019-06-07T17:25:31.716Z,34.45
2019-06-07T17:28:01.921Z,34.16
2019-06-07T17:30:31.657Z,33.16
2019-06-07T17:33:00.984Z,33.44
2019-06-07T17:35:30.273Z,33.43
2019-06-07T17:37:59.542Z,34.11
2019-06-07T17:40:28.838Z,33.54
2019-06-07T17:42:58.032Z,33.42
2019-06-07T17:45:27.297Z,33.44
2019-06-07T17:47:56.711Z,32.94
2019-06-07T17:50:26.061Z,33.05
2019-06-07T17:52:55.448Z,33.61
2019-06-07T17:55:24.908Z,34.28
2019-06-07T17:57:54.321Z,34.62
2019-06-07T18:00:28.510Z,35.35
2019-06-07T18:02:55.040Z,35.22
2019-06-07T18:05:24.353Z,35.20
2019-06-07T18:07:53.977Z,36.16
2019-06-07T18:10:38.093Z,36.57
2019-06-07T18:13:07.428Z,37.17
2019-06-07T18:15:46.324Z,37.31
2019-06-07T18:18:15.817Z,36.46
2019-06-07T18:20:45.175Z,36.37
2019-06-07T18:23:14.554Z,36.98
2019-06-07T18:25:43.881Z,36.59
2019-06-07T18:28:13.771Z,36.60
2019-06-07T18:30:43.073Z,36.77
2019-06-07T18:33:12.333Z,36.94
2019-06-07T18:35:41.859Z,36.90
2019-06-07T18:38:11.282Z,37.33
2019-06-07T18:40:41.942Z,37.00
2019-06-07T18:43:11.552Z,37.96
2019-06-07T18:45:42.724Z,36.98
2019-06-07T18:48:11.981Z,37.30
2019-06-07T18:50:41.307Z,37.15
2019-06-07T18:53:10.646Z,38.26
2019-06-07T18:55:42.021Z,37.45
2019-06-07T18:58:11.354Z,37.08
2019-06-07T19:00:40.860Z,36.92
2019-06-07T19:03:10.129Z,37.31
2019-06-07T19:05:39.338Z,37.63
2019-06-07T19:08:08.716Z,37.94
2019-06-07T19:10:38.063Z,38.04
2019-06-07T19:13:07.451Z,37.99
2019-06-07T19:15:36.888Z,38.61
2019-06-07T19:18:06.366Z,38.82
2019-06-07T19:20:35.854Z,39.38
2019-06-07T19:23:05.442Z,39.51
2019-06-07T19:25:35.035Z,39.40
2019-06-07T19:28:04.582Z,39.63
2019-06-07T19:30:34.435Z,39.80
2019-06-07T19:33:03.883Z,39.91
2019-06-07T19:35:33.515Z,40.34
2019-06-07T19:38:02.755Z,40.23
2019-06-07T19:40:32.198Z,40.20
2019-06-07T19:43:03.916Z,40.45
2019-06-07T19:45:32.296Z,40.65
2019-06-07T19:48:02.687Z,42.26
2019-06-07T19:50:32.094Z,43.82
2019-06-07T19:53:01.415Z,44.65
2019-06-07T19:55:30.629Z,43.33
2019-06-07T19:57:59.884Z,42.70
2019-06-07T20:00:29.170Z,42.19
2019-06-07T20:02:58.399Z,41.96
2019-06-07T20:05:27.718Z,42.56
2019-06-07T20:07:58.414Z,43.03
2019-06-07T20:10:27.912Z,43.73
2019-06-07T20:12:58.563Z,43.06
2019-06-07T20:15:29.555Z,42.48
2019-06-07T20:17:59.323Z,42.33
2019-06-07T20:20:30.099Z,41.80
2019-06-07T20:23:00.830Z,41.64
2019-06-07T20:25:30.251Z,41.53
2019-06-07T20:27:59.737Z,41.55
2019-06-07T20:30:29.848Z,41.94
2019-06-07T20:32:59.817Z,41.98
2019-06-07T20:35:29.322Z,42.25
2019-06-07T20:37:58.920Z,42.24
2019-06-07T20:40:28.264Z,42.50
2019-06-07T20:42:57.848Z,42.43
2019-06-07T20:45:33.645Z,43.19
2019-06-07T20:47:58.251Z,43.28
2019-06-07T20:50:27.656Z,43.39
2019-06-07T20:52:59.377Z,43.28
2019-06-07T20:55:27.837Z,43.22
2019-06-07T20:57:57.049Z,43.01
2019-06-07T21:00:26.291Z,43.84
2019-06-07T21:02:55.514Z,47.01
2019-06-07T21:05:24.819Z,49.72
2019-06-07T21:07:53.994Z,51.82
2019-06-07T21:10:23.650Z,52.82
2019-06-07T21:12:52.882Z,52.29
2019-06-07T21:15:22.155Z,52.06
2019-06-07T21:17:51.560Z,50.83
2019-06-07T21:20:20.743Z,47.86
2019-06-07T21:22:49.943Z,46.20
2019-06-07T21:25:19.137Z,45.84
2019-06-07T21:27:48.389Z,45.15
2019-06-07T21:30:17.696Z,45.13
2019-06-07T21:32:46.950Z,44.85
2019-06-07T21:35:16.858Z,44.17
2019-06-07T21:37:46.077Z,43.78
2019-06-07T21:40:15.450Z,43.77
2019-06-07T21:42:44.633Z,44.02
2019-06-07T21:45:15.358Z,44.67
2019-06-07T21:47:44.662Z,46.39
2019-06-07T21:50:17.428Z,47.01
2019-06-07T21:52:46.841Z,46.82
2019-06-07T21:55:16.149Z,45.91
2019-06-07T21:57:47.137Z,44.97
2019-06-07T22:00:18.799Z,44.87
2019-06-07T22:02:48.182Z,45.00
2019-06-07T22:05:17.436Z,45.73
2019-06-07T22:07:46.748Z,47.51
2019-06-07T22:10:16.196Z,49.27
2019-06-07T22:12:45.545Z,49.13
2019-06-07T22:15:32.115Z,46.92
2019-06-07T22:17:47.466Z,45.47
2019-06-07T22:20:16.857Z,44.70
2019-06-07T22:22:46.180Z,44.24
2019-06-07T22:25:15.572Z,45.03
2019-06-07T22:27:45.004Z,45.07
2019-06-07T22:30:14.557Z,46.12
2019-06-07T22:32:44.047Z,45.75
2019-06-07T22:35:13.442Z,45.36
2019-06-07T22:37:42.620Z,45.67
2019-06-07T22:40:12.535Z,45.08
2019-06-07T22:42:42.005Z,44.51
2019-06-07T22:45:11.282Z,44.22
2019-06-07T22:47:40.687Z,44.32
2019-06-07T22:50:10.872Z,44.88
2019-06-07T22:52:40.481Z,44.91
2019-06-07T22:55:10.322Z,45.75
2019-06-07T22:57:57.634Z,48.43
2019-06-07T23:00:28.515Z,47.03
2019-06-07T23:02:57.797Z,46.45
2019-06-07T23:05:27.218Z,45.29
2019-06-07T23:07:56.601Z,45.32
2019-06-07T23:10:25.925Z,45.22
2019-06-07T23:12:55.218Z,45.79
2019-06-07T23:15:24.630Z,45.67
2019-06-07T23:17:53.824Z,46.15
2019-06-07T23:20:23.143Z,49.49
2019-06-07T23:22:54.560Z,49.96
2019-06-07T23:25:24.880Z,47.95
2019-06-07T23:27:54.216Z,46.61
2019-06-07T23:30:23.396Z,46.36
2019-06-07T23:32:52.686Z,45.87
2019-06-07T23:35:22.136Z,45.86
2019-06-07T23:37:52.737Z,45.24
2019-06-07T23:40:22.038Z,44.67
2019-06-07T23:42:51.369Z,44.71
2019-06-07T23:45:21.714Z,45.42
2019-06-07T23:47:51.093Z,48.76
2019-06-07T23:50:20.265Z,51.83
2019-06-07T23:52:49.990Z,49.69
2019-06-07T23:55:20.092Z,49.63
2019-06-07T23:57:49.667Z,47.34
